sensor_id;sensor_type;location;lat;lon;timestamp;P1;durP1;ratioP1;P2;durP2;ratioP2
56752;SDS011;42627;42.646;23.642;2023-07-16T00:02:10;6.97;;;3.60;;
56752;SDS011;42627;42.646;23.642;2023-07-16T00:04:11;8.00;;;3.22;;
56752;SDS011;42627;42.646;23.642;2023-07-16T00:06:12;13.38;;;3.90;;
56752;SDS011;42627;42.646;23.642;2023-07-16T00:08:13;5.68;;;3.58;;
56752;SDS011;42627;42.646;23.642;2023-07-16T00:10:14;4.72;;;3.35;;
56752;SDS011;42627;42.646;23.642;2023-07-16T00:12:15;6.65;;;3.42;;
56752;SDS011;42627;42.646;23.642;2023-07-16T00:23:19;5.57;;;3.10;;
56752;SDS011;42627;42.646;23.642;2023-07-16T00:25:21;4.80;;;2.60;;
56752;SDS011;42627;42.646;23.642;2023-07-16T00:35:05;7.25;;;2.95;;
56752;SDS011;42627;42.646;23.642;2023-07-16T00:37:06;5.72;;;2.88;;
56752;SDS011;42627;42.646;23.642;2023-07-16T00:39:07;6.95;;;2.97;;
56752;SDS011;42627;42.646;23.642;2023-07-16T00:41:09;4.45;;;2.65;;
56752;SDS011;42627;42.646;23.642;2023-07-16T00:43:10;4.90;;;2.95;;
56752;SDS011;42627;42.646;23.642;2023-07-16T00:45:12;3.83;;;2.58;;
56752;SDS011;42627;42.646;23.642;2023-07-16T00:47:14;7.85;;;3.00;;
56752;SDS011;42627;42.646;23.642;2023-07-16T00:51:36;5.40;;;2.95;;
56752;SDS011;42627;42.646;23.642;2023-07-16T00:53:38;4.53;;;2.42;;
56752;SDS011;42627;42.646;23.642;2023-07-16T00:55:39;5.90;;;2.60;;
56752;SDS011;42627;42.646;23.642;2023-07-16T00:57:40;5.07;;;2.72;;
56752;SDS011;42627;42.646;23.642;2023-07-16T01:04:55;5.80;;;2.92;;
56752;SDS011;42627;42.646;23.642;2023-07-16T01:06:57;4.85;;;2.70;;
56752;SDS011;42627;42.646;23.642;2023-07-16T01:09:02;4.57;;;2.65;;
56752;SDS011;42627;42.646;23.642;2023-07-16T01:11:03;5.93;;;3.05;;
56752;SDS011;42627;42.646;23.642;2023-07-16T01:13:05;4.70;;;2.78;;
56752;SDS011;42627;42.646;23.642;2023-07-16T01:15:06;5.60;;;3.03;;
56752;SDS011;42627;42.646;23.642;2023-07-16T01:17:07;5.95;;;3.15;;
56752;SDS011;42627;42.646;23.642;2023-07-16T01:21:20;5.05;;;3.08;;
56752;SDS011;42627;42.646;23.642;2023-07-16T01:33:52;5.38;;;3.28;;
56752;SDS011;42627;42.646;23.642;2023-07-16T01:35:57;6.15;;;3.38;;
56752;SDS011;42627;42.646;23.642;2023-07-16T01:38:00;8.55;;;3.38;;
56752;SDS011;42627;42.646;23.642;2023-07-16T01:40:01;7.82;;;3.33;;
56752;SDS011;42627;42.646;23.642;2023-07-16T01:42:07;6.43;;;3.30;;
56752;SDS011;42627;42.646;23.642;2023-07-16T01:44:08;5.60;;;3.80;;
56752;SDS011;42627;42.646;23.642;2023-07-16T01:46:09;7.70;;;3.13;;
56752;SDS011;42627;42.646;23.642;2023-07-16T01:52:31;9.23;;;3.80;;
56752;SDS011;42627;42.646;23.642;2023-07-16T01:54:32;5.85;;;3.35;;
56752;SDS011;42627;42.646;23.642;2023-07-16T01:56:33;8.05;;;3.63;;
56752;SDS011;42627;42.646;23.642;2023-07-16T02:04:14;9.13;;;4.85;;
56752;SDS011;42627;42.646;23.642;2023-07-16T02:06:14;6.00;;;3.90;;
56752;SDS011;42627;42.646;23.642;2023-07-16T02:08:16;6.15;;;3.38;;
56752;SDS011;42627;42.646;23.642;2023-07-16T02:10:18;6.60;;;3.60;;
56752;SDS011;42627;42.646;23.642;2023-07-16T02:12:20;8.50;;;4.22;;
56752;SDS011;42627;42.646;23.642;2023-07-16T02:14:21;7.20;;;4.20;;
56752;SDS011;42627;42.646;23.642;2023-07-16T02:16:22;7.40;;;4.10;;
56752;SDS011;42627;42.646;23.642;2023-07-16T02:20:43;10.52;;;4.57;;
56752;SDS011;42627;42.646;23.642;2023-07-16T02:22:44;8.43;;;4.45;;
56752;SDS011;42627;42.646;23.642;2023-07-16T02:24:45;7.47;;;3.85;;
56752;SDS011;42627;42.646;23.642;2023-07-16T02:26:46;5.65;;;3.75;;
56752;SDS011;42627;42.646;23.642;2023-07-16T02:33:51;7.97;;;4.25;;
56752;SDS011;42627;42.646;23.642;2023-07-16T02:35:52;8.88;;;4.55;;
56752;SDS011;42627;42.646;23.642;2023-07-16T02:37:53;5.63;;;3.72;;
56752;SDS011;42627;42.646;23.642;2023-07-16T02:39:54;9.30;;;4.63;;
56752;SDS011;42627;42.646;23.642;2023-07-16T02:41:56;9.57;;;4.28;;
56752;SDS011;42627;42.646;23.642;2023-07-16T02:44:00;6.75;;;3.90;;
56752;SDS011;42627;42.646;23.642;2023-07-16T02:46:01;5.88;;;3.90;;
56752;SDS011;42627;42.646;23.642;2023-07-16T02:50:22;6.57;;;4.05;;
56752;SDS011;42627;42.646;23.642;2023-07-16T02:52:23;8.55;;;4.53;;
56752;SDS011;42627;42.646;23.642;2023-07-16T02:54:24;7.25;;;4.65;;
56752;SDS011;42627;42.646;23.642;2023-07-16T02:56:25;9.55;;;4.80;;
56752;SDS011;42627;42.646;23.642;2023-07-16T03:03:20;5.88;;;4.07;;
56752;SDS011;42627;42.646;23.642;2023-07-16T03:05:21;8.82;;;4.63;;
56752;SDS011;42627;42.646;23.642;2023-07-16T03:07:22;6.35;;;4.10;;
56752;SDS011;42627;42.646;23.642;2023-07-16T03:09:25;5.47;;;3.95;;
56752;SDS011;42627;42.646;23.642;2023-07-16T03:11:26;6.10;;;4.25;;
56752;SDS011;42627;42.646;23.642;2023-07-16T03:13:27;7.63;;;3.92;;
56752;SDS011;42627;42.646;23.642;2023-07-16T03:15:28;7.22;;;4.05;;
56752;SDS011;42627;42.646;23.642;2023-07-16T03:19:49;5.93;;;3.33;;
56752;SDS011;42627;42.646;23.642;2023-07-16T03:21:50;5.80;;;3.63;;
56752;SDS011;42627;42.646;23.642;2023-07-16T03:23:51;5.68;;;3.63;;
56752;SDS011;42627;42.646;23.642;2023-07-16T03:25:52;6.32;;;3.45;;
56752;SDS011;42627;42.646;23.642;2023-07-16T03:33:07;6.03;;;3.38;;
56752;SDS011;42627;42.646;23.642;2023-07-16T03:35:08;5.63;;;3.47;;
56752;SDS011;42627;42.646;23.642;2023-07-16T03:37:09;7.00;;;3.42;;
56752;SDS011;42627;42.646;23.642;2023-07-16T03:39:09;5.65;;;3.72;;
56752;SDS011;42627;42.646;23.642;2023-07-16T03:41:11;6.07;;;3.55;;
56752;SDS011;42627;42.646;23.642;2023-07-16T03:43:12;5.68;;;3.45;;
56752;SDS011;42627;42.646;23.642;2023-07-16T03:45:12;5.90;;;2.97;;
56752;SDS011;42627;42.646;23.642;2023-07-16T03:49:25;7.65;;;3.55;;
56752;SDS011;42627;42.646;23.642;2023-07-16T03:51:25;6.13;;;3.17;;
56752;SDS011;42627;42.646;23.642;2023-07-16T03:53:26;4.75;;;2.97;;
56752;SDS011;42627;42.646;23.642;2023-07-16T03:55:27;4.70;;;3.08;;
56752;SDS011;42627;42.646;23.642;2023-07-16T04:02:52;5.38;;;2.97;;
56752;SDS011;42627;42.646;23.642;2023-07-16T04:04:53;8.65;;;3.38;;
56752;SDS011;42627;42.646;23.642;2023-07-16T04:06:54;6.45;;;4.00;;
56752;SDS011;42627;42.646;23.642;2023-07-16T04:08:56;6.03;;;3.63;;
56752;SDS011;42627;42.646;23.642;2023-07-16T04:10:57;7.68;;;3.55;;
56752;SDS011;42627;42.646;23.642;2023-07-16T04:12:58;5.75;;;3.13;;
56752;SDS011;42627;42.646;23.642;2023-07-16T04:14:59;7.45;;;3.33;;
56752;SDS011;42627;42.646;23.642;2023-07-16T04:17:13;5.22;;;2.80;;
56752;SDS011;42627;42.646;23.642;2023-07-16T04:19:14;6.53;;;3.60;;
56752;SDS011;42627;42.646;23.642;2023-07-16T04:21:15;6.85;;;3.03;;
56752;SDS011;42627;42.646;23.642;2023-07-16T04:23:16;6.57;;;3.00;;
56752;SDS011;42627;42.646;23.642;2023-07-16T04:25:17;5.60;;;3.13;;
56752;SDS011;42627;42.646;23.642;2023-07-16T04:34:39;5.55;;;3.20;;
56752;SDS011;42627;42.646;23.642;2023-07-16T04:36:41;6.43;;;3.15;;
56752;SDS011;42627;42.646;23.642;2023-07-16T04:38:43;6.90;;;3.13;;
56752;SDS011;42627;42.646;23.642;2023-07-16T04:40:44;7.07;;;3.45;;
56752;SDS011;42627;42.646;23.642;2023-07-16T04:42:45;6.05;;;3.33;;
56752;SDS011;42627;42.646;23.642;2023-07-16T04:44:46;5.82;;;3.03;;
56752;SDS011;42627;42.646;23.642;2023-07-16T04:46:47;6.18;;;3.30;;
56752;SDS011;42627;42.646;23.642;2023-07-16T04:48:48;6.10;;;3.15;;
56752;SDS011;42627;42.646;23.642;2023-07-16T04:50:50;6.57;;;3.20;;
56752;SDS011;42627;42.646;23.642;2023-07-16T04:52:52;5.35;;;2.83;;
56752;SDS011;42627;42.646;23.642;2023-07-16T04:54:53;5.65;;;3.58;;
56752;SDS011;42627;42.646;23.642;2023-07-16T04:56:54;6.15;;;3.28;;
56752;SDS011;42627;42.646;23.642;2023-07-16T04:58:55;5.07;;;2.97;;
56752;SDS011;42627;42.646;23.642;2023-07-16T05:03:20;6.50;;;2.63;;
56752;SDS011;42627;42.646;23.642;2023-07-16T05:05:21;5.13;;;2.38;;
56752;SDS011;42627;42.646;23.642;2023-07-16T05:07:22;4.38;;;2.78;;
56752;SDS011;42627;42.646;23.642;2023-07-16T05:09:23;5.65;;;2.97;;
56752;SDS011;42627;42.646;23.642;2023-07-16T05:18:52;5.18;;;2.50;;
56752;SDS011;42627;42.646;23.642;2023-07-16T05:20:53;5.18;;;2.35;;
56752;SDS011;42627;42.646;23.642;2023-07-16T05:22:54;7.90;;;2.70;;
56752;SDS011;42627;42.646;23.642;2023-07-16T05:24:55;8.10;;;2.70;;
56752;SDS011;42627;42.646;23.642;2023-07-16T05:26:56;5.72;;;2.08;;
56752;SDS011;42627;42.646;23.642;2023-07-16T05:28:57;4.80;;;2.40;;
56752;SDS011;42627;42.646;23.642;2023-07-16T05:31:16;5.82;;;2.53;;
56752;SDS011;42627;42.646;23.642;2023-07-16T05:33:17;4.65;;;2.50;;
56752;SDS011;42627;42.646;23.642;2023-07-16T05:35:18;5.20;;;2.50;;
56752;SDS011;42627;42.646;23.642;2023-07-16T05:37:19;4.10;;;2.80;;
56752;SDS011;42627;42.646;23.642;2023-07-16T05:39:20;8.32;;;2.58;;
56752;SDS011;42627;42.646;23.642;2023-07-16T05:48:50;5.63;;;2.35;;
56752;SDS011;42627;42.646;23.642;2023-07-16T05:50:51;4.85;;;2.58;;
56752;SDS011;42627;42.646;23.642;2023-07-16T05:52:53;5.00;;;2.65;;
56752;SDS011;42627;42.646;23.642;2023-07-16T05:54:54;5.47;;;2.40;;
56752;SDS011;42627;42.646;23.642;2023-07-16T05:56:55;5.20;;;2.42;;
56752;SDS011;42627;42.646;23.642;2023-07-16T05:58:56;5.28;;;2.67;;
56752;SDS011;42627;42.646;23.642;2023-07-16T06:03:14;8.88;;;2.88;;
56752;SDS011;42627;42.646;23.642;2023-07-16T06:05:22;5.30;;;2.95;;
56752;SDS011;42627;42.646;23.642;2023-07-16T06:07:36;4.70;;;2.78;;
56752;SDS011;42627;42.646;23.642;2023-07-16T06:09:37;7.32;;;2.70;;
56752;SDS011;42627;42.646;23.642;2023-07-16T06:11:38;3.58;;;2.08;;
56752;SDS011;42627;42.646;23.642;2023-07-16T06:13:40;6.20;;;2.50;;
56752;SDS011;42627;42.646;23.642;2023-07-16T06:18:03;4.78;;;2.45;;
56752;SDS011;42627;42.646;23.642;2023-07-16T06:20:04;4.80;;;2.42;;
56752;SDS011;42627;42.646;23.642;2023-07-16T06:22:07;3.78;;;2.40;;
56752;SDS011;42627;42.646;23.642;2023-07-16T06:24:08;4.88;;;2.72;;
56752;SDS011;42627;42.646;23.642;2023-07-16T06:26:09;4.72;;;2.40;;
56752;SDS011;42627;42.646;23.642;2023-07-16T06:28:10;4.85;;;2.63;;
56752;SDS011;42627;42.646;23.642;2023-07-16T06:32:22;5.90;;;2.85;;
56752;SDS011;42627;42.646;23.642;2023-07-16T06:34:24;7.10;;;2.60;;
56752;SDS011;42627;42.646;23.642;2023-07-16T06:36:25;4.88;;;2.50;;
56752;SDS011;42627;42.646;23.642;2023-07-16T06:38:41;4.90;;;2.50;;
56752;SDS011;42627;42.646;23.642;2023-07-16T06:40:45;4.70;;;2.67;;
56752;SDS011;42627;42.646;23.642;2023-07-16T06:42:47;4.50;;;2.60;;
56752;SDS011;42627;42.646;23.642;2023-07-16T06:44:48;4.97;;;2.90;;
56752;SDS011;42627;42.646;23.642;2023-07-16T06:47:07;4.82;;;2.70;;
56752;SDS011;42627;42.646;23.642;2023-07-16T06:53:44;8.25;;;2.80;;
56752;SDS011;42627;42.646;23.642;2023-07-16T06:55:53;5.30;;;3.00;;
56752;SDS011;42627;42.646;23.642;2023-07-16T06:57:57;4.20;;;2.47;;
56752;SDS011;42627;42.646;23.642;2023-07-16T06:59:58;4.13;;;2.65;;
56752;SDS011;42627;42.646;23.642;2023-07-16T07:02:17;5.97;;;2.80;;
56752;SDS011;42627;42.646;23.642;2023-07-16T07:04:18;5.55;;;2.67;;
56752;SDS011;42627;42.646;23.642;2023-07-16T07:06:19;5.72;;;2.80;;
56752;SDS011;42627;42.646;23.642;2023-07-16T07:08:21;6.40;;;3.05;;
56752;SDS011;42627;42.646;23.642;2023-07-16T07:10:22;4.53;;;2.67;;
56752;SDS011;42627;42.646;23.642;2023-07-16T07:12:23;4.60;;;2.78;;
56752;SDS011;42627;42.646;23.642;2023-07-16T07:14:30;5.32;;;2.45;;
56752;SDS011;42627;42.646;23.642;2023-07-16T07:16:32;4.90;;;2.83;;
56752;SDS011;42627;42.646;23.642;2023-07-16T07:18:33;6.00;;;2.78;;
56752;SDS011;42627;42.646;23.642;2023-07-16T07:20:36;6.93;;;2.90;;
56752;SDS011;42627;42.646;23.642;2023-07-16T07:22:37;6.40;;;3.33;;
56752;SDS011;42627;42.646;23.642;2023-07-16T07:24:38;5.75;;;2.92;;
56752;SDS011;42627;42.646;23.642;2023-07-16T07:29:25;6.00;;;3.05;;
56752;SDS011;42627;42.646;23.642;2023-07-16T07:33:45;7.75;;;2.90;;
56752;SDS011;42627;42.646;23.642;2023-07-16T07:35:46;4.88;;;2.40;;
56752;SDS011;42627;42.646;23.642;2023-07-16T07:37:47;7.05;;;2.92;;
56752;SDS011;42627;42.646;23.642;2023-07-16T07:39:51;6.35;;;2.92;;
56752;SDS011;42627;42.646;23.642;2023-07-16T07:43:54;4.88;;;2.25;;
56752;SDS011;42627;42.646;23.642;2023-07-16T07:48:05;6.22;;;2.80;;
56752;SDS011;42627;42.646;23.642;2023-07-16T07:50:08;4.43;;;2.50;;
56752;SDS011;42627;42.646;23.642;2023-07-16T07:52:09;4.18;;;2.40;;
56752;SDS011;42627;42.646;23.642;2023-07-16T07:54:10;4.30;;;2.50;;
56752;SDS011;42627;42.646;23.642;2023-07-16T07:59:01;4.18;;;2.67;;
56752;SDS011;42627;42.646;23.642;2023-07-16T08:01:26;7.22;;;2.85;;
56752;SDS011;42627;42.646;23.642;2023-07-16T08:03:28;6.78;;;3.05;;
56752;SDS011;42627;42.646;23.642;2023-07-16T08:05:29;6.10;;;2.60;;
56752;SDS011;42627;42.646;23.642;2023-07-16T08:07:30;6.47;;;2.88;;
56752;SDS011;42627;42.646;23.642;2023-07-16T08:11:42;8.52;;;3.35;;
56752;SDS011;42627;42.646;23.642;2023-07-16T08:13:43;4.45;;;2.15;;
56752;SDS011;42627;42.646;23.642;2023-07-16T08:15:49;7.28;;;2.85;;
56752;SDS011;42627;42.646;23.642;2023-07-16T08:17:50;4.93;;;2.78;;
56752;SDS011;42627;42.646;23.642;2023-07-16T08:19:51;5.43;;;2.80;;
56752;SDS011;42627;42.646;23.642;2023-07-16T08:21:52;4.85;;;3.05;;
56752;SDS011;42627;42.646;23.642;2023-07-16T08:23:53;5.40;;;2.95;;
56752;SDS011;42627;42.646;23.642;2023-07-16T08:25:59;5.20;;;2.72;;
56752;SDS011;42627;42.646;23.642;2023-07-16T08:32:22;4.95;;;2.95;;
56752;SDS011;42627;42.646;23.642;2023-07-16T08:34:23;5.53;;;3.47;;
56752;SDS011;42627;42.646;23.642;2023-07-16T08:36:25;6.68;;;2.63;;
56752;SDS011;42627;42.646;23.642;2023-07-16T08:38:26;7.40;;;3.97;;
56752;SDS011;42627;42.646;23.642;2023-07-16T08:40:27;6.82;;;3.38;;
56752;SDS011;42627;42.646;23.642;2023-07-16T08:42:28;5.53;;;3.13;;
56752;SDS011;42627;42.646;23.642;2023-07-16T08:44:39;6.90;;;3.33;;
56752;SDS011;42627;42.646;23.642;2023-07-16T08:46:40;6.35;;;3.00;;
56752;SDS011;42627;42.646;23.642;2023-07-16T08:48:42;5.47;;;3.40;;
56752;SDS011;42627;42.646;23.642;2023-07-16T08:50:48;10.40;;;3.30;;
56752;SDS011;42627;42.646;23.642;2023-07-16T08:52:49;6.47;;;3.30;;
56752;SDS011;42627;42.646;23.642;2023-07-16T08:55:02;5.88;;;3.00;;
56752;SDS011;42627;42.646;23.642;2023-07-16T09:01:25;12.93;;;5.38;;
56752;SDS011;42627;42.646;23.642;2023-07-16T09:03:27;7.03;;;3.67;;
56752;SDS011;42627;42.646;23.642;2023-07-16T09:05:28;4.95;;;2.90;;
56752;SDS011;42627;42.646;23.642;2023-07-16T09:07:29;5.72;;;3.10;;
56752;SDS011;42627;42.646;23.642;2023-07-16T09:09:30;5.78;;;3.60;;
56752;SDS011;42627;42.646;23.642;2023-07-16T09:11:32;5.57;;;2.90;;
56752;SDS011;42627;42.646;23.642;2023-07-16T09:13:33;16.27;;;3.50;;
56752;SDS011;42627;42.646;23.642;2023-07-16T09:17:54;8.23;;;3.42;;
56752;SDS011;42627;42.646;23.642;2023-07-16T09:19:55;6.45;;;3.35;;
56752;SDS011;42627;42.646;23.642;2023-07-16T09:21:56;8.52;;;4.63;;
56752;SDS011;42627;42.646;23.642;2023-07-16T09:31:19;7.78;;;4.05;;
56752;SDS011;42627;42.646;23.642;2023-07-16T09:33:21;9.32;;;4.15;;
56752;SDS011;42627;42.646;23.642;2023-07-16T09:35:25;6.25;;;3.10;;
56752;SDS011;42627;42.646;23.642;2023-07-16T09:37:27;7.93;;;3.78;;
56752;SDS011;42627;42.646;23.642;2023-07-16T09:39:28;7.13;;;4.38;;
56752;SDS011;42627;42.646;23.642;2023-07-16T09:41:29;8.18;;;3.72;;
56752;SDS011;42627;42.646;23.642;2023-07-16T09:43:30;10.05;;;4.78;;
56752;SDS011;42627;42.646;23.642;2023-07-16T09:45:33;6.65;;;4.32;;
56752;SDS011;42627;42.646;23.642;2023-07-16T09:47:35;6.03;;;3.92;;
56752;SDS011;42627;42.646;23.642;2023-07-16T09:49:36;8.57;;;4.07;;
56752;SDS011;42627;42.646;23.642;2023-07-16T09:51:38;10.90;;;4.50;;
56752;SDS011;42627;42.646;23.642;2023-07-16T09:53:40;7.07;;;4.28;;
56752;SDS011;42627;42.646;23.642;2023-07-16T09:55:42;8.93;;;4.07;;
56752;SDS011;42627;42.646;23.642;2023-07-16T09:57:43;8.05;;;4.22;;
56752;SDS011;42627;42.646;23.642;2023-07-16T09:59:56;7.03;;;4.30;;
56752;SDS011;42627;42.646;23.642;2023-07-16T10:01:59;7.80;;;4.22;;
56752;SDS011;42627;42.646;23.642;2023-07-16T10:04:09;9.98;;;4.40;;
56752;SDS011;42627;42.646;23.642;2023-07-16T10:06:12;6.95;;;4.07;;
56752;SDS011;42627;42.646;23.642;2023-07-16T10:08:17;8.40;;;3.75;;
56752;SDS011;42627;42.646;23.642;2023-07-16T10:15:26;9.43;;;4.30;;
56752;SDS011;42627;42.646;23.642;2023-07-16T10:17:27;8.80;;;4.82;;
56752;SDS011;42627;42.646;23.642;2023-07-16T10:19:29;7.20;;;4.65;;
56752;SDS011;42627;42.646;23.642;2023-07-16T10:21:36;8.93;;;4.65;;
56752;SDS011;42627;42.646;23.642;2023-07-16T10:23:42;8.25;;;4.88;;
56752;SDS011;42627;42.646;23.642;2023-07-16T10:25:59;12.60;;;5.68;;
56752;SDS011;42627;42.646;23.642;2023-07-16T10:28:01;7.25;;;4.68;;
56752;SDS011;42627;42.646;23.642;2023-07-16T10:32:26;11.25;;;6.10;;
56752;SDS011;42627;42.646;23.642;2023-07-16T10:34:28;13.75;;;5.50;;
56752;SDS011;42627;42.646;23.642;2023-07-16T10:36:29;8.73;;;5.00;;
56752;SDS011;42627;42.646;23.642;2023-07-16T10:46:02;10.05;;;5.03;;
56752;SDS011;42627;42.646;23.642;2023-07-16T10:48:03;10.32;;;6.20;;
56752;SDS011;42627;42.646;23.642;2023-07-16T10:50:05;12.27;;;5.97;;
56752;SDS011;42627;42.646;23.642;2023-07-16T10:52:06;12.98;;;5.95;;
56752;SDS011;42627;42.646;23.642;2023-07-16T10:54:07;8.27;;;5.47;;
56752;SDS011;42627;42.646;23.642;2023-07-16T10:56:08;8.73;;;5.45;;
56752;SDS011;42627;42.646;23.642;2023-07-16T10:58:10;9.52;;;5.35;;
56752;SDS011;42627;42.646;23.642;2023-07-16T11:02:22;12.52;;;6.55;;
56752;SDS011;42627;42.646;23.642;2023-07-16T11:04:23;8.60;;;5.25;;
56752;SDS011;42627;42.646;23.642;2023-07-16T11:06:24;9.43;;;5.43;;
56752;SDS011;42627;42.646;23.642;2023-07-16T11:08:25;9.63;;;5.85;;
56752;SDS011;42627;42.646;23.642;2023-07-16T11:15:34;8.50;;;5.35;;
56752;SDS011;42627;42.646;23.642;2023-07-16T11:17:37;8.82;;;4.93;;
56752;SDS011;42627;42.646;23.642;2023-07-16T11:19:38;9.40;;;5.57;;
56752;SDS011;42627;42.646;23.642;2023-07-16T11:21:39;9.60;;;5.80;;
56752;SDS011;42627;42.646;23.642;2023-07-16T11:23:42;10.95;;;5.90;;
56752;SDS011;42627;42.646;23.642;2023-07-16T11:25:46;7.88;;;5.22;;
56752;SDS011;42627;42.646;23.642;2023-07-16T11:36:21;9.25;;;5.95;;
56752;SDS011;42627;42.646;23.642;2023-07-16T11:38:22;11.40;;;5.47;;
56752;SDS011;42627;42.646;23.642;2023-07-16T11:47:39;8.73;;;5.15;;
56752;SDS011;42627;42.646;23.642;2023-07-16T11:49:39;13.95;;;5.90;;
56752;SDS011;42627;42.646;23.642;2023-07-16T11:51:40;8.68;;;5.85;;
56752;SDS011;42627;42.646;23.642;2023-07-16T11:53:46;8.73;;;6.00;;
56752;SDS011;42627;42.646;23.642;2023-07-16T11:55:47;12.70;;;5.32;;
56752;SDS011;42627;42.646;23.642;2023-07-16T11:57:48;7.85;;;5.35;;
56752;SDS011;42627;42.646;23.642;2023-07-16T12:02:12;9.98;;;5.47;;
56752;SDS011;42627;42.646;23.642;2023-07-16T12:04:13;10.70;;;5.60;;
56752;SDS011;42627;42.646;23.642;2023-07-16T12:06:14;10.23;;;5.18;;
56752;SDS011;42627;42.646;23.642;2023-07-16T12:08:15;8.98;;;5.50;;
56752;SDS011;42627;42.646;23.642;2023-07-16T12:17:34;8.20;;;4.95;;
56752;SDS011;42627;42.646;23.642;2023-07-16T12:19:35;9.48;;;5.18;;
56752;SDS011;42627;42.646;23.642;2023-07-16T12:21:36;10.98;;;5.20;;
56752;SDS011;42627;42.646;23.642;2023-07-16T12:23:37;11.43;;;5.20;;
56752;SDS011;42627;42.646;23.642;2023-07-16T12:25:38;7.75;;;4.90;;
56752;SDS011;42627;42.646;23.642;2023-07-16T12:27:39;7.97;;;4.70;;
56752;SDS011;42627;42.646;23.642;2023-07-16T12:29:40;8.85;;;5.20;;
56752;SDS011;42627;42.646;23.642;2023-07-16T12:31:41;9.38;;;4.70;;
56752;SDS011;42627;42.646;23.642;2023-07-16T12:33:43;7.22;;;5.18;;
56752;SDS011;42627;42.646;23.642;2023-07-16T12:35:44;7.90;;;4.70;;
56752;SDS011;42627;42.646;23.642;2023-07-16T12:37:45;9.25;;;4.57;;
56752;SDS011;42627;42.646;23.642;2023-07-16T12:45:03;10.02;;;5.45;;
56752;SDS011;42627;42.646;23.642;2023-07-16T12:47:04;11.00;;;4.50;;
56752;SDS011;42627;42.646;23.642;2023-07-16T12:49:08;8.70;;;4.65;;
56752;SDS011;42627;42.646;23.642;2023-07-16T12:51:09;9.52;;;4.78;;
56752;SDS011;42627;42.646;23.642;2023-07-16T12:53:10;8.35;;;4.47;;
56752;SDS011;42627;42.646;23.642;2023-07-16T12:55:11;9.05;;;4.75;;
56752;SDS011;42627;42.646;23.642;2023-07-16T12:57:13;10.75;;;5.60;;
56752;SDS011;42627;42.646;23.642;2023-07-16T12:59:14;8.90;;;4.85;;
56752;SDS011;42627;42.646;23.642;2023-07-16T13:01:15;8.20;;;4.70;;
56752;SDS011;42627;42.646;23.642;2023-07-16T13:03:16;8.68;;;4.63;;
56752;SDS011;42627;42.646;23.642;2023-07-16T13:05:17;9.93;;;4.75;;
56752;SDS011;42627;42.646;23.642;2023-07-16T13:07:18;7.00;;;4.65;;
56752;SDS011;42627;42.646;23.642;2023-07-16T13:14:36;7.10;;;4.57;;
56752;SDS011;42627;42.646;23.642;2023-07-16T13:16:37;9.57;;;4.55;;
56752;SDS011;42627;42.646;23.642;2023-07-16T13:18:38;10.23;;;5.05;;
56752;SDS011;42627;42.646;23.642;2023-07-16T13:20:39;7.68;;;4.53;;
56752;SDS011;42627;42.646;23.642;2023-07-16T13:22:40;8.45;;;4.50;;
56752;SDS011;42627;42.646;23.642;2023-07-16T13:24:41;6.63;;;4.47;;
56752;SDS011;42627;42.646;23.642;2023-07-16T13:26:42;7.75;;;4.43;;
56752;SDS011;42627;42.646;23.642;2023-07-16T13:30:54;7.40;;;4.50;;
56752;SDS011;42627;42.646;23.642;2023-07-16T13:32:55;7.97;;;4.80;;
56752;SDS011;42627;42.646;23.642;2023-07-16T13:34:56;12.25;;;5.07;;
56752;SDS011;42627;42.646;23.642;2023-07-16T13:36:58;7.53;;;4.60;;
56752;SDS011;42627;42.646;23.642;2023-07-16T13:44:19;8.38;;;4.75;;
56752;SDS011;42627;42.646;23.642;2023-07-16T13:46:20;9.52;;;4.60;;
56752;SDS011;42627;42.646;23.642;2023-07-16T13:48:21;7.45;;;4.13;;
56752;SDS011;42627;42.646;23.642;2023-07-16T13:50:23;7.97;;;4.63;;
56752;SDS011;42627;42.646;23.642;2023-07-16T13:52:24;10.23;;;4.82;;
56752;SDS011;42627;42.646;23.642;2023-07-16T13:54:25;8.88;;;5.20;;
56752;SDS011;42627;42.646;23.642;2023-07-16T13:56:26;9.50;;;4.82;;
56752;SDS011;42627;42.646;23.642;2023-07-16T14:00:37;7.38;;;5.13;;
56752;SDS011;42627;42.646;23.642;2023-07-16T14:02:38;8.90;;;5.57;;
56752;SDS011;42627;42.646;23.642;2023-07-16T14:04:39;10.68;;;5.50;;
56752;SDS011;42627;42.646;23.642;2023-07-16T14:06:40;9.05;;;5.47;;
56752;SDS011;42627;42.646;23.642;2023-07-16T14:08:41;8.70;;;5.28;;
56752;SDS011;42627;42.646;23.642;2023-07-16T14:10:42;8.90;;;4.95;;
56752;SDS011;42627;42.646;23.642;2023-07-16T14:20:07;8.70;;;4.63;;
56752;SDS011;42627;42.646;23.642;2023-07-16T14:22:08;8.55;;;5.50;;
56752;SDS011;42627;42.646;23.642;2023-07-16T14:24:13;8.07;;;5.18;;
56752;SDS011;42627;42.646;23.642;2023-07-16T14:26:14;12.05;;;5.47;;
56752;SDS011;42627;42.646;23.642;2023-07-16T14:30:37;7.93;;;5.13;;
56752;SDS011;42627;42.646;23.642;2023-07-16T14:32:38;8.93;;;5.45;;
56752;SDS011;42627;42.646;23.642;2023-07-16T14:34:39;8.15;;;5.25;;
56752;SDS011;42627;42.646;23.642;2023-07-16T14:36:40;11.23;;;5.40;;
56752;SDS011;42627;42.646;23.642;2023-07-16T14:38:42;9.95;;;5.00;;
56752;SDS011;42627;42.646;23.642;2023-07-16T14:40:43;9.73;;;5.25;;
56752;SDS011;42627;42.646;23.642;2023-07-16T14:45:07;7.85;;;4.80;;
56752;SDS011;42627;42.646;23.642;2023-07-16T14:47:08;8.25;;;5.22;;
56752;SDS011;42627;42.646;23.642;2023-07-16T14:49:09;10.98;;;5.20;;
56752;SDS011;42627;42.646;23.642;2023-07-16T14:51:10;9.73;;;4.75;;
56752;SDS011;42627;42.646;23.642;2023-07-16T15:00:48;8.00;;;5.28;;
56752;SDS011;42627;42.646;23.642;2023-07-16T15:02:49;7.75;;;4.55;;
56752;SDS011;42627;42.646;23.642;2023-07-16T15:04:50;9.73;;;5.47;;
56752;SDS011;42627;42.646;23.642;2023-07-16T15:06:51;6.78;;;4.70;;
56752;SDS011;42627;42.646;23.642;2023-07-16T15:08:55;8.57;;;5.57;;
56752;SDS011;42627;42.646;23.642;2023-07-16T15:10:56;9.68;;;5.65;;
56752;SDS011;42627;42.646;23.642;2023-07-16T15:15:09;9.13;;;5.40;;
56752;SDS011;42627;42.646;23.642;2023-07-16T15:17:11;12.52;;;6.35;;
56752;SDS011;42627;42.646;23.642;2023-07-16T15:19:12;8.38;;;5.50;;
56752;SDS011;42627;42.646;23.642;2023-07-16T15:21:13;11.45;;;5.93;;
56752;SDS011;42627;42.646;23.642;2023-07-16T15:23:14;10.18;;;6.15;;
56752;SDS011;42627;42.646;23.642;2023-07-16T15:25:15;10.48;;;5.85;;
56752;SDS011;42627;42.646;23.642;2023-07-16T15:34:56;9.90;;;6.47;;
56752;SDS011;42627;42.646;23.642;2023-07-16T15:36:57;11.55;;;6.40;;
56752;SDS011;42627;42.646;23.642;2023-07-16T15:38:58;9.02;;;5.97;;
56752;SDS011;42627;42.646;23.642;2023-07-16T15:40:59;8.90;;;6.40;;
56752;SDS011;42627;42.646;23.642;2023-07-16T15:43:00;13.35;;;6.47;;
56752;SDS011;42627;42.646;23.642;2023-07-16T15:45:01;10.48;;;6.50;;
56752;SDS011;42627;42.646;23.642;2023-07-16T15:53:35;11.73;;;7.20;;
56752;SDS011;42627;42.646;23.642;2023-07-16T15:55:36;28.30;;;8.18;;
56752;SDS011;42627;42.646;23.642;2023-07-16T16:03:01;9.68;;;6.30;;
56752;SDS011;42627;42.646;23.642;2023-07-16T16:05:02;11.23;;;6.40;;
56752;SDS011;42627;42.646;23.642;2023-07-16T16:07:06;10.95;;;6.85;;
56752;SDS011;42627;42.646;23.642;2023-07-16T16:09:07;10.57;;;6.43;;
56752;SDS011;42627;42.646;23.642;2023-07-16T16:11:08;11.13;;;7.07;;
56752;SDS011;42627;42.646;23.642;2023-07-16T16:13:09;9.82;;;5.95;;
56752;SDS011;42627;42.646;23.642;2023-07-16T16:15:10;18.25;;;6.80;;
56752;SDS011;42627;42.646;23.642;2023-07-16T16:17:26;9.70;;;7.05;;
56752;SDS011;42627;42.646;23.642;2023-07-16T16:19:27;12.65;;;6.45;;